Latest Weather Observations for Mandora

IDW60801

Issued at 8:04 am WST Thursday 23 March 2017 (issued every 30 minutes, with the page automatically refreshed every 10 minutes)

About weather observations | Map of weather stations | Latest weather observations for WA | Other Formats
Station Details ID: 004019 Name: MANDORA Lat: -19.74 Lon: 120.84 Height: 7.5 m
Data from the previous 72 hours. | See also: Recent months at Mandora
Date/Time
WST
Temp
°C
App
Temp
°C
Dew
Point
°C
Rel
Hum
%
Delta-T
°C
Wind Press
QNH
hPa
Press
MSL
hPa
Rain since
9am
mm
Dir  Spd
km/h
Gust
km/h
Spd
kts
Gust
kts
23/08:00am 26.0 30.6 24.8 93 0.8 E 9 15 5 8 1005.1 1005.0 48.8
23/07:30am 25.7 29.8 24.5 93 0.8 NE 11 17 6 9 1005.0 1004.9 48.8
23/07:00am 25.0 28.8 24.0 94 0.7 NE 11 17 6 9 1005.2 1005.1 48.8
23/06:30am 25.2 26.6 24.2 94 0.7 NNE 24 35 13 19 1005.3 1005.2 48.6
23/06:00am 25.7 29.3 25.0 96 0.5 N 15 22 8 12 1004.8 1004.7 47.2
23/05:30am 25.4 29.2 24.7 96 0.5 NE 13 19 7 10 1004.9 1004.8 42.2
23/05:00am 25.2 28.0 24.3 95 0.6 ENE 17 24 9 13 1004.3 1004.2 34.2
23/04:30am 24.8 26.4 23.9 95 0.6 NNE 22 33 12 18 1004.7 1004.6 32.8
23/04:16am 25.4 26.9 24.4 94 0.7 NE 24 46 13 25 1004.7 1004.6 25.8
23/04:00am 25.5 28.0 24.5 94 0.7 NE 19 30 10 16 1004.2 1004.1 23.6
23/03:30am 25.6 28.5 24.4 93 0.8 ENE 17 26 9 14 1004.0 1003.9 19.0
23/03:00am 26.3 30.1 24.7 91 1.1 E 13 20 7 11 1003.5 1003.4 3.6
23/02:30am 26.3 29.0 24.7 91 1.1 ENE 19 32 10 17 1003.7 1003.6 3.6
23/02:00am 26.6 29.6 24.6 89 1.4 ENE 17 30 9 16 1003.9 1003.8 3.6
23/01:30am 27.3 30.3 24.7 86 1.8 ENE 17 26 9 14 1004.5 1004.4 3.6
23/01:00am 28.0 31.0 24.6 82 2.4 ENE 17 26 9 14 1004.8 1004.7 3.6
23/12:30am 29.2 31.5 24.1 74 3.5 NE 19 30 10 16 1005.0 1004.9 3.6
23/12:00am 29.2 30.9 24.1 74 3.5 NE 22 32 12 17 1005.5 1005.4 3.6
 
Date/Time
WST
Temp
°C
App
Temp
°C
Dew
Point
°C
Rel
Hum
%
Delta-T
°C
Wind Press
QNH
hPa
Press
MSL
hPa
Rain since
9am
mm
Dir  Spd
km/h
Gust
km/h
Spd
kts
Gust
kts
22/11:30pm 29.4 31.1 24.0 72 3.7 NNE 22 32 12 17 1005.8 1005.7 3.6
22/11:00pm 29.6 30.2 23.5 69 4.2 NE 26 39 14 21 1006.0 1005.9 3.6
22/10:30pm 29.7 31.2 24.3 73 3.8 NNE 24 33 13 18 1006.4 1006.3 3.6
22/10:00pm 29.8 31.2 24.2 72 3.9 NE 24 41 13 22 1006.8 1006.7 3.6
22/09:30pm 29.9 31.6 24.1 71 4.0 NNE 22 35 12 19 1006.9 1006.8 3.6
22/09:00pm 29.7 32.2 24.8 75 3.4 NNE 20 30 11 16 1006.8 1006.7 3.6
22/08:30pm 29.3 31.7 24.6 76 3.3 NNE 20 32 11 17 1006.6 1006.5 3.6
22/08:00pm 28.8 32.0 24.4 77 3.1 NE 15 20 8 11 1006.5 1006.4 3.6
22/07:30pm 28.1 31.0 23.9 78 2.9 NE 15 20 8 11 1006.3 1006.2 3.6
22/07:00pm 27.9 28.0 23.3 76 3.2 NE 28 41 15 22 1006.1 1006.0 3.6
22/06:30pm 29.7 30.8 24.3 73 3.8 NNE 26 39 14 21 1005.4 1005.3 3.6
22/06:00pm 30.0 31.3 24.6 73 3.8 N 26 44 14 24 1004.9 1004.8 3.6
22/05:30pm 30.1 31.4 24.7 73 3.8 N 26 39 14 21 1004.3 1004.2 3.6
22/05:00pm 30.4 30.8 24.5 70 4.1 N 30 39 16 21 1004.1 1004.0 3.6
22/04:30pm 31.4 32.5 25.0 69 4.5 N 28 39 15 21 1004.1 1004.0 3.6
22/04:00pm 31.6 33.2 25.2 69 4.5 N 26 39 14 21 1003.8 1003.7 3.6
22/03:30pm 31.8 33.9 25.9 71 4.2 N 26 39 14 21 1003.7 1003.6 3.6
22/03:00pm 31.0 32.2 25.1 71 4.2 NNE 28 41 15 22 1003.9 1003.8 3.6
22/02:30pm 32.1 33.2 24.9 65 5.1 NNE 28 39 15 21 1003.7 1003.6 3.6
22/02:00pm 32.0 33.4 24.8 65 5.1 NNE 26 41 14 22 1004.3 1004.2 3.6
22/01:30pm 32.2 33.0 24.5 64 5.4 NNE 28 39 15 21 1004.8 1004.7 3.6
22/01:00pm 32.8 34.2 24.8 62 5.7 NNE 26 39 14 21 1005.1 1005.0 3.6
22/12:30pm 32.2 34.0 24.8 65 5.2 NNE 24 39 13 21 1005.5 1005.4 3.6
22/12:00pm 31.1 33.2 24.7 68 4.5 NNE 22 35 12 19 1006.0 1005.9 3.6
22/11:30am 29.0 33.4 26.8 88 1.6 ENE 17 28 9 15 1007.0 1006.9 3.6
22/11:00am 26.0 29.0 24.6 92 1.0 NNE 17 24 9 13 1006.8 1006.7 3.6
22/10:41am 26.0 24.9 21.7 77 2.9 NNE 30 59 16 32 1007.9 1007.8 0.0
22/10:40am 27.4 27.0 21.7 71 3.8 NE 26 52 14 28 1007.9 1007.8 0.0
22/10:30am 32.5 36.1 26.1 69 4.6 NE 19 26 10 14 1007.6 1007.5 0.0
22/10:00am 31.3 34.1 24.9 69 4.5 NE 19 30 10 16 1007.6 1007.5 0.0
22/09:30am 31.0 33.9 25.4 72 4.0 NE 20 28 11 15 1008.0 1007.9 0.0
22/09:00am 30.3 34.2 25.4 75 3.5 ENE 15 24 8 13 1008.1 1008.0 3.8
22/08:30am 29.9 35.2 26.5 82 2.4 ENE 11 17 6 9 1008.1 1008.0 3.8
22/08:00am 26.7 31.4 24.9 90 1.3 ENE 9 13 5 7 1007.9 1007.8 3.8
22/07:30am 24.8 27.8 22.7 88 1.4 ENE 11 22 6 12 1007.8 1007.7 3.8
22/07:16am 24.1 24.4 20.8 82 2.2 NNE 20 48 11 26 1008.3 1008.2 1.6
22/07:13am 25.8 27.1 21.7 78 2.7 NE 17 48 9 26 1008.2 1008.1 0.4
22/07:00am 28.5 33.4 25.3 83 2.3 ENE 9 15 5 8 1007.4 1007.3 0.0
22/06:30am 28.2 33.1 25.2 84 2.1 ENE 9 17 5 9 1006.9 1006.8 0.0
22/06:00am 28.1 33.5 25.5 86 1.8 ENE 7 13 4 7 1006.7 1006.6 0.0
22/05:30am 28.2 33.1 25.2 84 2.1 ENE 9 15 5 8 1006.5 1006.4 0.0
22/05:00am 28.3 33.4 25.5 85 2.0 ENE 9 13 5 7 1006.3 1006.2 0.0
22/04:30am 28.4 33.9 25.6 85 2.0 E 7 11 4 6 1005.9 1005.8 0.0
22/04:00am 28.5 33.9 25.5 84 2.1 ESE 7 9 4 5 1005.8 1005.7 0.0
22/03:30am 28.7 34.2 25.3 82 2.4 ESE 6 9 3 5 1006.0 1005.9 0.0
22/03:00am 29.2 33.3 24.5 76 3.3 NE 11 13 6 7 1006.2 1006.1 0.0
22/02:30am 29.1 33.8 24.9 78 2.9 NE 9 19 5 10 1006.4 1006.3 0.0
22/02:00am 29.5 33.1 25.0 77 3.2 NNE 15 19 8 10 1006.4 1006.3 0.0
22/01:30am 29.6 33.5 24.9 76 3.3 NE 13 17 7 9 1006.6 1006.5 0.0
22/01:00am 29.8 34.0 25.3 77 3.2 NNE 13 17 7 9 1007.0 1006.9 0.0
22/12:30am 29.8 34.5 25.5 78 3.0 NNE 11 15 6 8 1007.1 1007.0 0.0
22/12:00am 29.3 34.1 25.1 78 3.0 NNE 9 13 5 7 1007.2 1007.1 0.0
 
Date/Time
WST
Temp
°C
App
Temp
°C
Dew
Point
°C
Rel
Hum
%
Delta-T
°C
Wind Press
QNH
hPa
Press
MSL
hPa
Rain since
9am
mm
Dir  Spd
km/h
Gust
km/h
Spd
kts
Gust
kts
21/11:30pm 29.2 33.7 25.2 79 2.8 NNE 11 17 6 9 1007.4 1007.3 0.0
21/11:00pm 28.7 33.5 25.1 81 2.5 NNE 9 13 5 7 1007.6 1007.5 0.0
21/10:30pm 28.6 33.5 24.6 79 2.8 NNE 7 9 4 5 1007.7 1007.6 0.0
21/10:00pm 28.7 32.8 24.0 76 3.3 NNE 9 11 5 6 1007.7 1007.6 0.0
21/09:30pm 29.0 33.3 24.3 76 3.3 N 9 11 5 6 1007.7 1007.6 0.0
21/09:00pm 29.3 34.3 24.8 77 3.2 NNE 7 9 4 5 1007.5 1007.4 0.0
21/08:30pm 29.4 34.1 24.9 77 3.2 NNE 9 11 5 6 1007.1 1007.0 0.0
21/08:00pm 29.3 34.3 24.8 77 3.2 N 7 9 4 5 1006.9 1006.8 0.0
21/07:30pm 29.5 34.5 24.8 76 3.3 N 7 9 4 5 1006.6 1006.5 0.0
21/07:00pm 30.0 34.7 24.9 74 3.6 N 9 11 5 6 1006.1 1006.0 0.0
21/06:30pm 30.4 35.0 24.8 72 3.9 N 9 13 5 7 1005.6 1005.5 0.0
21/06:00pm 30.8 35.2 24.4 68 4.5 NNW 9 13 5 7 1005.1 1005.0 0.0
21/05:30pm 31.3 35.6 24.2 66 5.0 NNW 9 15 5 8 1005.2 1005.1 0.0
21/05:00pm 32.1 36.1 24.4 63 5.4 N 11 17 6 9 1004.6 1004.5 0.0
21/04:30pm 32.8 36.7 24.8 62 5.6 NNE 13 22 7 12 1004.9 1004.8 0.0
21/04:00pm 32.8 35.8 24.6 62 5.8 N 17 24 9 13 1005.6 1005.5 0.0
21/03:30pm 33.6 36.7 24.8 60 6.2 N 17 24 9 13 1005.4 1005.3 0.0
21/03:00pm 33.4 36.0 24.0 58 6.6 NNW 17 24 9 13 1005.3 1005.2 0.0
21/02:30pm 33.4 36.0 24.0 58 6.6 N 17 24 9 13 1005.5 1005.4 0.0
21/02:00pm 33.5 35.8 23.5 55 7.0 N 17 26 9 14 1005.4 1005.3 0.0
21/01:30pm 33.7 36.3 24.0 57 6.8 N 17 26 9 14 1005.6 1005.5 0.0
21/01:00pm 34.3 37.9 24.3 56 7.0 NNE 13 22 7 12 1005.7 1005.6 0.0
21/12:30pm 33.7 36.6 23.1 54 7.3 NNE 13 19 7 10 1006.0 1005.9 0.0
21/12:00pm 33.6 37.0 23.3 55 7.2 N 11 19 6 10 1006.8 1006.7 0.0
21/11:30am 33.4 36.8 24.0 58 6.6 N 13 26 7 14 1007.5 1007.4 0.0
21/11:00am 32.9 36.4 23.5 57 6.5 N 11 19 6 10 1007.7 1007.6 0.0
21/10:30am 32.9 37.3 24.4 61 6.0 N 9 15 5 8 1008.1 1008.0 0.0
21/10:00am 31.9 35.8 22.9 59 6.2 N 7 13 4 7 1008.2 1008.1 0.0
21/09:30am 31.9 35.5 22.0 55 6.7 NNE 6 13 3 7 1008.4 1008.3 0.0
21/09:00am 32.0 35.8 22.4 57 6.6 NNE 6 7 3 4 1008.3 1008.2 0.0
21/08:30am 32.0 35.0 20.9 52 7.4 E 6 9 3 5 1008.1 1008.0 0.0
21/08:00am 31.4 34.8 21.6 56 6.6 E 6 9 3 5 1007.9 1007.8 0.0
21/07:30am 29.3 32.4 21.5 63 5.2 ESE 7 9 4 5 1007.8 1007.7 0.0
21/07:00am 27.5 32.4 22.4 73 3.4 CALM 0 0 0 0 1007.8 1007.7 0.0
21/06:30am 26.4 31.3 22.3 78 2.8 CALM 0 6 0 3 1007.8 1007.7 0.0
21/06:00am 26.2 29.7 21.8 77 2.9 E 6 7 3 4 1007.3 1007.2 0.0
21/05:30am 27.0 30.4 21.7 73 3.5 ESE 6 9 3 5 1007.5 1007.4 0.0
21/05:00am 27.1 31.3 21.8 73 3.6 SE 2 6 1 3 1007.1 1007.0 0.0
21/04:30am 27.4 30.6 21.2 69 4.1 SSE 6 9 3 5 1007.4 1007.3 0.0
21/04:00am 27.5 30.3 21.5 70 4.0 ESE 9 15 5 8 1007.5 1007.4 0.0
21/03:30am 27.2 29.0 21.9 73 3.6 ESE 15 22 8 12 1007.5 1007.4 0.0
21/03:00am 27.3 30.9 23.1 78 2.9 SE 9 13 5 7 1006.4 1006.3 0.0
21/02:30am 26.9 32.3 23.2 80 2.5 CALM 0 0 0 0 1006.2 1006.1 0.0
21/02:00am 27.7 31.9 22.4 73 3.6 E 4 7 2 4 1006.8 1006.7 0.0
21/01:30am 28.2 33.4 23.6 76 3.2 ENE 2 6 1 3 1007.0 1006.9 0.0
21/01:00am 28.5 31.3 23.6 75 3.4 NE 15 20 8 11 1007.5 1007.4 0.0
21/12:30am 28.1 32.9 25.7 87 1.7 ENE 11 17 6 9 1007.4 1007.3 0.0
21/12:00am 28.0 32.6 26.0 89 1.4 ENE 13 19 7 10 1007.4 1007.3 0.0
 
Date/Time
WST
Temp
°C
App
Temp
°C
Dew
Point
°C
Rel
Hum
%
Delta-T
°C
Wind Press
QNH
hPa
Press
MSL
hPa
Rain since
9am
mm
Dir  Spd
km/h
Gust
km/h
Spd
kts
Gust
kts
20/11:30pm 27.7 34.6 25.7 89 1.4 CALM 0 6 0 3 1006.8 1006.7 0.0
20/11:00pm 28.0 34.0 26.0 89 1.4 SSW 6 7 3 4 1006.6 1006.5 0.0
20/10:30pm 28.3 34.2 25.9 87 1.7 WSW 6 9 3 5 1006.7 1006.6 0.0
20/10:00pm 28.5 34.0 26.1 87 1.7 NW 9 11 5 6 1006.8 1006.7 0.0
20/09:30pm 28.3 33.8 26.1 88 1.6 N 9 13 5 7 1006.9 1006.8 0.0
20/09:00pm 28.2 33.7 25.6 86 1.8 NNE 7 11 4 6 1006.9 1006.8 0.0
20/08:30pm 28.0 34.0 24.8 83 2.2 ENE 2 9 1 5 1006.8 1006.7 0.0
20/08:00pm 28.4 33.5 24.6 80 2.7 N 6 7 3 4 1006.4 1006.3 0.0
20/07:30pm 28.7 33.6 24.7 79 2.8 NNW 7 9 4 5 1006.0 1005.9 0.0
20/07:00pm 29.3 34.2 24.6 76 3.3 WSW 7 15 4 8 1005.6 1005.5 0.0
20/06:30pm 30.4 35.3 24.3 70 4.3 WNW 6 7 3 4 1005.2 1005.1 0.0
20/06:00pm 31.4 35.0 24.3 66 5.0 NNW 13 17 7 9 1004.8 1004.7 0.0
20/05:30pm 32.2 35.2 24.0 62 5.7 NNW 15 20 8 11 1004.0 1003.9 0.0
20/05:00pm 33.5 35.7 23.2 54 7.1 NNW 17 22 9 12 1003.9 1003.8 0.0
20/04:30pm 34.2 35.1 21.9 48 8.4 NNW 20 28 11 15 1003.6 1003.5 0.0
20/04:00pm 34.7 35.7 21.7 46 8.9 NNW 19 26 10 14 1003.8 1003.7 0.0
20/03:30pm 35.3 35.8 21.2 44 9.6 NNW 20 26 11 14 1003.9 1003.8 0.0
20/03:00pm 35.9 36.9 21.0 42 10.1 NNW 17 26 9 14 1004.2 1004.1 0.0
20/02:30pm 36.0 36.8 20.7 41 10.3 NNW 17 24 9 13 1004.4 1004.3 0.0
20/02:00pm 35.7 37.3 21.5 43 9.7 NNW 15 20 8 11 1004.8 1004.7 0.0
20/01:30pm 35.5 36.8 21.7 44 9.4 NNW 17 24 9 13 1005.2 1005.1 0.0
20/01:00pm 36.1 38.7 23.3 47 8.9 NNW 15 20 8 11 1005.7 1005.6 0.0
20/12:30pm 35.5 38.6 24.1 51 8.0 NNW 15 22 8 12 1006.0 1005.9 0.0
20/12:00pm 35.9 39.8 24.8 52 7.9 NW 13 22 7 12 1006.4 1006.3 0.0
20/11:30am 35.4 39.5 24.0 51 8.0 W 9 15 5 8 1007.0 1006.9 0.0
20/11:00am 34.2 37.7 23.6 54 7.4 W 11 17 6 9 1007.4 1007.3 0.0
20/10:30am 33.6 36.9 24.5 59 6.4 W 15 20 8 11 1007.5 1007.4 0.0
20/10:00am 34.2 38.7 26.4 64 5.6 WNW 15 22 8 12 1007.8 1007.7 0.0
20/09:30am 31.9 36.3 25.7 69 4.4 WNW 13 20 7 11 1008.1 1008.0 0.0
20/09:00am 31.9 35.8 26.0 71 4.2 NW 17 24 9 13 1008.0 1007.9 0.0
20/08:30am 30.8 34.7 26.1 76 3.4 NW 17 28 9 15 1007.9 1007.8 0.0

Other Formats:

Comma delimited format used in spreadsheet applications
http://www.bom.gov.au/fwo/IDW60801/IDW60801.94200.axf

JavaScript Object Notation format (JSON) in row-major order
http://www.bom.gov.au/fwo/IDW60801/IDW60801.94200.json